createdAt,value
2017-09-02T00:00:27.567Z,15.75
2017-09-02T00:01:28.010Z,15.68
2017-09-02T00:02:28.442Z,15.57
2017-09-02T00:03:28.871Z,15.55
2017-09-02T00:04:29.305Z,15.59
2017-09-02T00:05:29.744Z,15.61
2017-09-02T00:06:30.172Z,15.55
2017-09-02T00:07:30.623Z,15.51
2017-09-02T00:08:31.041Z,15.57
2017-09-02T00:09:31.478Z,15.64
2017-09-02T00:10:31.908Z,15.62
2017-09-02T00:11:32.351Z,15.62
2017-09-02T00:12:32.776Z,15.46
2017-09-02T00:13:33.203Z,15.58
2017-09-02T00:14:33.645Z,15.46
2017-09-02T00:15:34.078Z,15.55
2017-09-02T00:16:34.511Z,15.44
2017-09-02T00:17:34.952Z,15.55
2017-09-02T00:18:35.373Z,15.52
2017-09-02T00:19:35.814Z,15.55
2017-09-02T00:20:36.243Z,15.61
2017-09-02T00:21:36.675Z,15.67
2017-09-02T00:22:37.113Z,15.64
2017-09-02T00:23:37.549Z,15.49
2017-09-02T00:24:37.975Z,15.57
2017-09-02T00:25:38.407Z,15.68
2017-09-02T00:26:38.845Z,15.75
2017-09-02T00:27:39.274Z,15.75
2017-09-02T00:28:39.712Z,15.65
2017-09-02T00:29:40.162Z,15.73
2017-09-02T00:30:40.575Z,15.72
2017-09-02T00:31:41.005Z,15.76
2017-09-02T00:32:41.440Z,15.80
2017-09-02T00:33:41.886Z,15.80
2017-09-02T00:34:42.309Z,15.88
2017-09-02T00:35:42.755Z,15.61
2017-09-02T00:36:43.177Z,15.67
2017-09-02T00:37:43.606Z,15.68
2017-09-02T00:38:44.061Z,15.75
2017-09-02T00:39:44.477Z,15.58
2017-09-02T00:40:44.908Z,15.51
2017-09-02T00:41:45.340Z,15.64
2017-09-02T00:42:45.773Z,15.51
2017-09-02T00:43:46.209Z,15.39
2017-09-02T00:44:46.647Z,15.40
2017-09-02T00:45:47.081Z,15.37
2017-09-02T00:46:47.511Z,15.44
2017-09-02T00:47:47.939Z,15.54
2017-09-02T00:48:48.378Z,15.57
2017-09-02T00:49:48.805Z,15.58
2017-09-02T00:50:49.271Z,15.54
2017-09-02T00:51:49.675Z,15.39
2017-09-02T00:52:50.109Z,15.43
2017-09-02T00:53:50.544Z,15.46
2017-09-02T00:54:50.987Z,15.43
2017-09-02T00:55:51.412Z,15.36
2017-09-02T00:56:51.835Z,15.49
2017-09-02T00:57:52.277Z,15.44
2017-09-02T00:58:52.707Z,15.43
2017-09-02T00:59:53.133Z,15.47
2017-09-02T01:00:53.579Z,15.49
2017-09-02T01:01:54.009Z,15.46
2017-09-02T01:02:54.442Z,15.47
2017-09-02T01:03:54.877Z,15.43
2017-09-02T01:04:55.312Z,15.49
2017-09-02T01:05:55.734Z,15.31
2017-09-02T01:06:56.166Z,15.31
2017-09-02T01:07:56.601Z,15.42
2017-09-02T01:08:57.034Z,15.33
2017-09-02T01:09:57.469Z,15.44
2017-09-02T01:10:57.903Z,15.29
2017-09-02T01:11:58.336Z,15.19
2017-09-02T01:12:58.764Z,15.28
2017-09-02T01:13:59.206Z,15.24
2017-09-02T01:14:59.631Z,15.19
2017-09-02T01:16:00.066Z,15.14
2017-09-02T01:17:00.496Z,15.09
2017-09-02T01:18:00.928Z,15.03
2017-09-02T01:19:01.363Z,15.14
2017-09-02T01:20:01.830Z,15.03
2017-09-02T01:21:02.227Z,15.14
2017-09-02T01:22:02.659Z,15.06
2017-09-02T01:23:03.113Z,15.03
2017-09-02T01:24:03.534Z,15.07
2017-09-02T01:25:03.959Z,15.15
2017-09-02T01:26:04.391Z,15.06
2017-09-02T01:27:04.828Z,15.03
2017-09-02T01:28:05.261Z,15.04
2017-09-02T01:29:05.692Z,15.07
2017-09-02T01:30:06.120Z,14.97
2017-09-02T01:31:06.558Z,15.00
2017-09-02T01:32:06.984Z,14.99
2017-09-02T01:33:07.421Z,14.92
2017-09-02T01:34:07.854Z,14.85
2017-09-02T01:35:08.291Z,14.89
2017-09-02T01:36:08.729Z,14.84
2017-09-02T01:37:09.151Z,14.85
2017-09-02T01:38:09.579Z,14.82
2017-09-02T01:39:10.011Z,14.79
2017-09-02T01:40:10.446Z,14.78
2017-09-02T01:41:10.881Z,14.79
2017-09-02T01:42:11.315Z,14.72
2017-09-02T01:43:11.753Z,14.66
2017-09-02T01:44:12.178Z,14.70
2017-09-02T01:45:12.662Z,14.68
2017-09-02T01:46:13.047Z,14.72
2017-09-02T01:47:13.478Z,14.70
2017-09-02T01:48:13.904Z,14.81
2017-09-02T01:49:14.340Z,14.73
2017-09-02T01:50:14.778Z,14.72
2017-09-02T01:51:15.202Z,14.77
2017-09-02T01:52:15.638Z,14.77
2017-09-02T01:53:16.080Z,14.82
2017-09-02T01:54:16.510Z,14.84
2017-09-02T01:55:16.937Z,14.84
2017-09-02T01:56:17.368Z,14.78
2017-09-02T01:57:17.800Z,14.69
2017-09-02T01:58:18.243Z,14.73
2017-09-02T01:59:18.674Z,14.65
2017-09-02T02:00:19.098Z,14.62
2017-09-02T02:01:19.530Z,14.68
2017-09-02T02:02:19.961Z,14.68
2017-09-02T02:03:20.394Z,14.54
2017-09-02T02:04:20.824Z,14.65
2017-09-02T02:05:21.259Z,14.60
2017-09-02T02:06:21.687Z,14.53
2017-09-02T02:07:22.124Z,14.55
2017-09-02T02:08:22.552Z,14.54
2017-09-02T02:09:22.990Z,14.48
2017-09-02T02:10:23.420Z,14.60
2017-09-02T02:11:23.850Z,14.68
2017-09-02T02:12:24.312Z,14.59
2017-09-02T02:13:24.723Z,14.55
2017-09-02T02:14:25.141Z,14.59
2017-09-02T02:15:25.585Z,14.66
2017-09-02T02:16:26.013Z,14.53
2017-09-02T02:17:26.438Z,14.59
2017-09-02T02:18:26.883Z,14.60
2017-09-02T02:21:37.173Z,14.48
2017-09-02T02:22:00.872Z,14.44
2017-09-02T02:23:55.418Z,14.40
2017-09-02T02:24:55.850Z,14.33
2017-09-02T02:25:56.279Z,14.32
2017-09-02T02:26:56.711Z,14.33
2017-09-02T02:27:57.158Z,14.35
2017-09-02T02:28:57.573Z,14.37
2017-09-02T02:29:58.021Z,14.40
2017-09-02T02:30:58.438Z,14.33
2017-09-02T02:31:58.867Z,14.35
2017-09-02T02:32:59.300Z,14.50
2017-09-02T02:33:59.730Z,14.45
2017-09-02T02:35:00.175Z,14.32
2017-09-02T02:36:00.595Z,14.40
2017-09-02T02:37:01.043Z,14.37
2017-09-02T02:38:01.458Z,14.48
2017-09-02T02:39:01.894Z,14.50
2017-09-02T02:40:02.327Z,14.48
2017-09-02T02:41:02.768Z,14.48
2017-09-02T02:42:03.216Z,14.41
2017-09-02T02:43:03.619Z,14.32
2017-09-02T02:44:04.049Z,14.37
2017-09-02T02:45:04.492Z,14.40
2017-09-02T02:46:04.928Z,14.32
2017-09-02T02:47:05.352Z,14.35
2017-09-02T02:48:05.772Z,14.37
2017-09-02T02:49:06.209Z,14.28
2017-09-02T02:50:06.646Z,14.29
2017-09-02T02:51:07.073Z,14.33
2017-09-02T02:52:07.508Z,14.35
2017-09-02T02:53:07.940Z,14.29
2017-09-02T02:54:08.369Z,14.33
2017-09-02T02:55:08.799Z,14.43
2017-09-02T02:56:09.227Z,14.36
2017-09-02T02:57:09.672Z,14.33
2017-09-02T02:58:10.095Z,14.33
2017-09-02T02:59:10.531Z,14.35
2017-09-02T03:00:10.955Z,14.35
2017-09-02T03:01:11.399Z,14.35
2017-09-02T03:02:11.823Z,14.37
2017-09-02T03:03:12.267Z,14.32
2017-09-02T03:04:12.685Z,14.36
2017-09-02T03:05:13.115Z,14.28
2017-09-02T03:06:13.551Z,14.30
2017-09-02T03:07:13.982Z,14.22
2017-09-02T03:08:14.413Z,14.29
2017-09-02T03:09:14.841Z,14.30
2017-09-02T03:10:15.286Z,14.26
2017-09-02T03:11:15.705Z,14.20
2017-09-02T03:12:16.140Z,14.25
2017-09-02T03:13:16.573Z,14.10
2017-09-02T03:14:17.001Z,14.08
2017-09-02T03:15:17.440Z,14.22
2017-09-02T03:16:17.859Z,14.20
2017-09-02T03:17:18.301Z,14.10
2017-09-02T03:18:18.732Z,14.20
2017-09-02T03:19:19.158Z,14.18
2017-09-02T03:20:19.594Z,14.12
2017-09-02T03:21:20.019Z,14.14
2017-09-02T03:22:20.452Z,14.17
2017-09-02T03:23:20.885Z,14.14
2017-09-02T03:24:21.322Z,14.07
2017-09-02T03:25:21.749Z,14.12
2017-09-02T03:26:22.178Z,14.04
2017-09-02T03:27:22.615Z,14.10
2017-09-02T03:28:23.043Z,14.05
2017-09-02T03:29:23.466Z,14.12
2017-09-02T03:30:23.904Z,14.11
2017-09-02T03:31:24.339Z,14.11
2017-09-02T03:32:24.770Z,14.03
2017-09-02T03:33:25.199Z,14.05
2017-09-02T03:34:25.629Z,14.03
2017-09-02T03:35:26.062Z,14.11
2017-09-02T03:36:26.490Z,14.05
2017-09-02T03:37:26.922Z,14.17
2017-09-02T03:38:27.350Z,14.11
2017-09-02T03:39:27.804Z,14.07
2017-09-02T03:40:28.218Z,14.05
2017-09-02T03:41:28.646Z,14.00
2017-09-02T03:42:29.106Z,13.97
2017-09-02T03:43:29.516Z,13.97
2017-09-02T03:44:29.939Z,13.93
2017-09-02T03:45:30.369Z,13.90
2017-09-02T03:46:30.814Z,13.89
2017-09-02T03:47:31.239Z,13.90
2017-09-02T03:48:31.665Z,13.79
2017-09-02T03:49:32.104Z,13.71
2017-09-02T03:50:32.531Z,13.74
2017-09-02T03:51:32.960Z,13.74
2017-09-02T03:52:33.391Z,13.75
2017-09-02T03:53:33.835Z,13.71
2017-09-02T03:54:34.274Z,13.63
2017-09-02T03:55:34.687Z,13.72
2017-09-02T03:56:35.112Z,13.67
2017-09-02T03:57:35.548Z,13.62
2017-09-02T03:58:35.977Z,13.60
2017-09-02T03:59:36.412Z,13.54
2017-09-02T04:00:36.839Z,13.56
2017-09-02T04:01:37.274Z,13.49
2017-09-02T04:02:37.707Z,13.41
2017-09-02T04:03:38.132Z,13.47
2017-09-02T04:04:38.561Z,13.52
2017-09-02T04:05:38.994Z,13.49
2017-09-02T04:06:39.423Z,13.46
2017-09-02T04:07:39.874Z,13.41
2017-09-02T04:08:40.286Z,13.44
2017-09-02T04:09:40.715Z,13.50
2017-09-02T04:10:41.155Z,13.53
2017-09-02T04:11:41.576Z,13.47
2017-09-02T04:12:42.009Z,13.56
2017-09-02T04:13:42.443Z,13.49
2017-09-02T04:14:42.874Z,13.46
2017-09-02T04:15:43.299Z,13.52
2017-09-02T04:16:43.730Z,13.54
2017-09-02T04:17:44.160Z,13.52
2017-09-02T04:18:44.595Z,13.50
2017-09-02T04:19:45.030Z,13.49
2017-09-02T04:20:45.457Z,13.54
2017-09-02T04:21:45.893Z,13.59
2017-09-02T04:22:46.315Z,13.47
2017-09-02T04:23:46.746Z,13.47
2017-09-02T04:24:47.178Z,13.50
2017-09-02T04:25:47.610Z,13.46
2017-09-02T04:26:48.042Z,13.52
2017-09-02T04:27:48.466Z,13.44
2017-09-02T04:28:48.900Z,13.44
2017-09-02T04:29:49.335Z,13.38
2017-09-02T04:30:49.785Z,13.39
2017-09-02T04:31:50.197Z,13.37
2017-09-02T04:32:50.626Z,13.33
2017-09-02T04:33:51.054Z,13.37
2017-09-02T04:34:51.484Z,13.33
2017-09-02T04:35:51.915Z,13.33
2017-09-02T04:36:52.348Z,13.37
2017-09-02T04:37:52.777Z,13.37
2017-09-02T04:38:53.208Z,13.38
2017-09-02T04:39:53.641Z,13.35
2017-09-02T04:40:54.123Z,13.38
2017-09-02T04:41:54.499Z,13.38
2017-09-02T04:42:54.932Z,13.38
2017-09-02T04:43:55.358Z,13.47
2017-09-02T04:44:55.786Z,13.41
2017-09-02T04:45:56.218Z,13.41
2017-09-02T04:46:56.655Z,13.50
2017-09-02T04:47:57.079Z,13.39
2017-09-02T04:48:57.512Z,13.47
2017-09-02T04:49:57.947Z,13.54
2017-09-02T04:50:58.373Z,13.57
2017-09-02T04:51:58.801Z,13.53
2017-09-02T04:52:59.237Z,13.63
2017-09-02T04:53:59.667Z,13.60
2017-09-02T04:55:00.104Z,13.67
2017-09-02T04:56:00.520Z,13.70
2017-09-02T04:57:00.954Z,13.65
2017-09-02T04:58:01.384Z,13.77
2017-09-02T04:59:01.865Z,13.74
2017-09-02T05:00:02.253Z,13.75
2017-09-02T05:01:02.680Z,13.65
2017-09-02T05:02:03.115Z,13.74
2017-09-02T05:03:03.544Z,13.83
2017-09-02T05:04:03.978Z,13.89
2017-09-02T05:05:04.404Z,13.81
2017-09-02T05:06:04.840Z,13.83
2017-09-02T05:07:05.278Z,13.93
2017-09-02T05:08:05.699Z,13.81
2017-09-02T05:09:06.130Z,13.89
2017-09-02T05:10:06.560Z,13.89
2017-09-02T05:11:07.001Z,13.90
2017-09-02T05:12:07.423Z,14.03
2017-09-02T05:13:07.859Z,14.00
2017-09-02T05:14:08.289Z,14.03
2017-09-02T05:15:08.726Z,14.00
2017-09-02T05:16:09.150Z,14.12
2017-09-02T05:17:09.577Z,13.97
2017-09-02T05:18:10.012Z,14.10
2017-09-02T05:19:10.442Z,14.10
2017-09-02T05:20:10.876Z,13.96
2017-09-02T05:21:11.305Z,13.99
2017-09-02T05:22:11.735Z,14.00
2017-09-02T05:23:12.169Z,13.93
2017-09-02T05:24:12.598Z,14.05
2017-09-02T05:25:13.030Z,14.08
2017-09-02T05:26:13.461Z,14.03
2017-09-02T05:27:13.923Z,13.96
2017-09-02T05:28:14.324Z,13.92
2017-09-02T05:29:14.752Z,13.93
2017-09-02T05:30:15.193Z,14.05
2017-09-02T05:31:15.624Z,14.04
2017-09-02T05:32:16.056Z,14.08
2017-09-02T05:33:16.484Z,14.04
2017-09-02T05:34:16.946Z,13.99
2017-09-02T05:35:17.345Z,13.97
2017-09-02T05:36:17.775Z,14.03
2017-09-02T05:37:18.205Z,14.04
2017-09-02T05:38:18.658Z,14.07
2017-09-02T05:39:19.072Z,14.10
2017-09-02T05:40:19.504Z,14.14
2017-09-02T05:41:19.937Z,14.15
2017-09-02T05:42:20.370Z,14.20
2017-09-02T05:43:20.803Z,14.22
2017-09-02T05:44:21.232Z,14.17
2017-09-02T05:45:21.659Z,14.26
2017-09-02T05:46:22.090Z,14.33
2017-09-02T05:47:22.523Z,14.29
2017-09-02T05:48:22.961Z,14.36
2017-09-02T05:49:23.390Z,14.43
2017-09-02T05:50:23.820Z,14.40
2017-09-02T05:51:24.248Z,14.45
2017-09-02T05:52:24.685Z,14.47
2017-09-02T05:53:25.113Z,14.62
2017-09-02T05:54:25.551Z,14.45
2017-09-02T05:55:25.978Z,14.65
2017-09-02T05:56:26.410Z,14.68
2017-09-02T05:57:26.840Z,14.66
2017-09-02T05:58:27.279Z,14.68
2017-09-02T05:59:27.712Z,14.69
2017-09-02T06:00:28.135Z,14.82
2017-09-02T06:01:28.588Z,14.72
2017-09-02T06:02:29.001Z,14.81
2017-09-02T06:03:29.435Z,14.79
2017-09-02T06:04:29.871Z,14.89
2017-09-02T06:05:30.296Z,14.94
2017-09-02T06:06:30.736Z,15.02
2017-09-02T06:07:31.158Z,14.96
2017-09-02T06:08:31.597Z,14.99
2017-09-02T06:09:32.025Z,15.06
2017-09-02T06:10:32.461Z,15.04
2017-09-02T06:11:32.892Z,15.15
2017-09-02T06:12:33.325Z,15.21
2017-09-02T06:13:33.772Z,15.22
2017-09-02T06:14:34.187Z,15.19
2017-09-02T06:15:34.630Z,15.35
2017-09-02T06:16:35.061Z,15.35
2017-09-02T06:17:35.489Z,15.37
2017-09-02T06:18:35.919Z,15.43
2017-09-02T06:19:36.354Z,15.44
2017-09-02T06:20:36.786Z,15.58
2017-09-02T06:21:37.301Z,15.58
2017-09-02T06:22:37.652Z,15.51
2017-09-02T06:23:38.081Z,15.57
2017-09-02T06:24:38.520Z,15.55
2017-09-02T06:25:38.961Z,15.62
2017-09-02T06:26:39.382Z,15.47
2017-09-02T06:27:39.816Z,15.64
2017-09-02T06:28:40.249Z,15.76
2017-09-02T06:29:40.680Z,15.80
2017-09-02T06:30:41.115Z,15.76
2017-09-02T06:31:41.545Z,15.70
2017-09-02T06:32:42.009Z,15.94
2017-09-02T06:33:42.413Z,15.91
2017-09-02T06:34:42.857Z,15.83
2017-09-02T06:35:43.284Z,15.86
2017-09-02T06:36:43.714Z,16.00
2017-09-02T06:37:44.152Z,16.02
2017-09-02T06:38:44.612Z,16.04
2017-09-02T06:39:45.017Z,16.02
2017-09-02T06:40:45.456Z,16.04
2017-09-02T06:41:45.886Z,16.08
2017-09-02T06:42:46.318Z,16.16
2017-09-02T06:43:46.755Z,16.21
2017-09-02T06:44:47.186Z,16.17
2017-09-02T06:45:47.621Z,16.26
2017-09-02T06:46:48.050Z,16.21
2017-09-02T06:47:48.485Z,16.12
2017-09-02T06:48:48.917Z,16.21
2017-09-02T06:49:49.353Z,16.32
2017-09-02T06:50:49.786Z,16.28
2017-09-02T06:51:50.224Z,16.23
2017-09-02T06:52:50.653Z,16.28
2017-09-02T06:53:51.093Z,16.26
2017-09-02T06:54:51.523Z,16.24
2017-09-02T06:55:51.959Z,16.20
2017-09-02T06:56:52.395Z,16.28
2017-09-02T06:57:52.826Z,16.24
2017-09-02T06:58:53.266Z,16.23
2017-09-02T06:59:53.703Z,16.35
2017-09-02T07:00:54.135Z,16.38
2017-09-02T07:01:54.571Z,16.36
2017-09-02T07:02:54.997Z,16.24
2017-09-02T07:03:55.440Z,16.24
2017-09-02T07:04:55.870Z,16.24
2017-09-02T07:05:56.304Z,16.43
2017-09-02T07:06:56.737Z,16.31
2017-09-02T07:07:57.174Z,16.41
2017-09-02T07:08:57.610Z,16.46
2017-09-02T07:09:58.040Z,16.50
2017-09-02T07:10:58.477Z,16.49
2017-09-02T07:11:58.918Z,16.53
2017-09-02T07:12:59.349Z,16.60
2017-09-02T07:13:59.866Z,16.50
2017-09-02T07:15:00.217Z,16.36
2017-09-02T07:16:00.656Z,16.56
2017-09-02T07:17:01.089Z,16.43
2017-09-02T07:18:01.523Z,16.61
2017-09-02T07:19:01.969Z,16.72
2017-09-02T07:20:02.394Z,16.91
2017-09-02T07:21:02.837Z,17.04
2017-09-02T07:22:03.262Z,17.05
2017-09-02T07:23:03.715Z,16.81
2017-09-02T07:24:04.141Z,16.86
2017-09-02T07:25:04.571Z,16.81
2017-09-02T07:26:05.007Z,16.97
2017-09-02T07:27:05.446Z,16.97
2017-09-02T07:28:05.877Z,16.86
2017-09-02T07:29:06.312Z,16.89
2017-09-02T07:30:06.747Z,17.04
2017-09-02T07:31:07.188Z,17.12
2017-09-02T07:32:07.625Z,17.30
2017-09-02T07:33:08.104Z,17.24
2017-09-02T07:34:08.484Z,17.15
2017-09-02T07:35:08.931Z,17.30
2017-09-02T07:36:09.375Z,17.29
2017-09-02T07:37:09.835Z,17.39
2017-09-02T07:38:10.245Z,17.70
2017-09-02T07:39:10.681Z,18.04
2017-09-02T07:40:11.117Z,18.13
2017-09-02T07:41:11.562Z,18.20
2017-09-02T07:42:12.000Z,18.56
2017-09-02T07:43:12.478Z,18.93
2017-09-02T07:44:12.891Z,18.56
2017-09-02T07:45:13.309Z,19.02
2017-09-02T07:46:13.746Z,18.75
2017-09-02T07:47:14.180Z,18.93
2017-09-02T07:48:14.630Z,19.22
2017-09-02T07:49:15.071Z,19.27
2017-09-02T07:50:15.585Z,19.69
2017-09-02T07:51:15.965Z,19.99
2017-09-02T07:52:16.403Z,20.02
2017-09-02T07:53:16.873Z,19.08
2017-09-02T07:54:17.287Z,18.95
2017-09-02T07:55:17.733Z,19.71
2017-09-02T07:56:18.184Z,20.24
2017-09-02T07:57:18.632Z,20.88
2017-09-02T07:58:19.078Z,21.67
2017-09-02T07:59:19.538Z,21.80
2017-09-02T08:00:19.978Z,22.11
2017-09-02T08:01:20.439Z,21.24
2017-09-02T08:02:20.885Z,21.73
2017-09-02T08:03:21.341Z,22.32
2017-09-02T08:04:21.787Z,20.99
2017-09-02T08:05:22.239Z,21.18
2017-09-02T08:06:22.697Z,21.46
2017-09-02T08:07:23.147Z,21.46
2017-09-02T08:08:23.601Z,21.27
2017-09-02T08:09:24.061Z,21.55
2017-09-02T08:10:24.528Z,21.14
2017-09-02T08:11:24.967Z,21.20
2017-09-02T08:12:25.421Z,21.60
2017-09-02T08:13:25.875Z,22.13
2017-09-02T08:14:26.334Z,21.51
2017-09-02T08:15:26.790Z,23.41
2017-09-02T08:16:27.248Z,23.63
2017-09-02T08:17:27.711Z,23.69
2017-09-02T08:18:28.171Z,25.26
2017-09-02T08:19:28.621Z,25.62
2017-09-02T08:20:29.073Z,26.47
2017-09-02T08:21:29.541Z,25.53
2017-09-02T08:22:29.995Z,25.21
2017-09-02T08:23:30.450Z,24.88
2017-09-02T08:24:30.910Z,24.43
2017-09-02T08:25:31.377Z,25.51
2017-09-02T08:26:31.837Z,25.95
2017-09-02T08:27:32.324Z,25.22
2017-09-02T08:28:32.749Z,26.66
2017-09-02T08:29:33.218Z,27.42
2017-09-02T08:30:33.747Z,27.54
2017-09-02T08:31:34.128Z,27.96
2017-09-02T08:32:34.612Z,28.66
2017-09-02T08:33:35.057Z,29.14
2017-09-02T08:34:35.515Z,29.35
2017-09-02T08:35:35.977Z,28.22
2017-09-02T08:36:36.443Z,27.20
2017-09-02T08:37:36.902Z,25.55
2017-09-02T08:38:37.380Z,25.96
2017-09-02T08:39:37.830Z,26.44
2017-09-02T08:40:38.289Z,28.17
2017-09-02T08:41:38.761Z,28.70
2017-09-02T08:42:39.220Z,29.53
2017-09-02T08:43:39.680Z,27.20
2017-09-02T08:44:40.152Z,26.78
2017-09-02T08:45:40.608Z,26.44
2017-09-02T08:46:41.069Z,27.96
2017-09-02T08:47:41.537Z,29.47
2017-09-02T08:48:42.000Z,30.27
2017-09-02T08:51:19.826Z,28.02
2017-09-02T08:52:20.311Z,26.75
2017-09-02T08:53:20.771Z,26.47
2017-09-02T08:54:21.236Z,27.78
2017-09-02T08:55:21.696Z,24.60
2017-09-02T08:56:22.156Z,22.72
2017-09-02T08:57:22.624Z,22.62
2017-09-02T08:58:23.080Z,23.54
2017-09-02T08:59:23.541Z,24.16
2017-09-02T09:00:24.005Z,24.61
2017-09-02T09:01:24.465Z,24.24
2017-09-02T09:02:24.925Z,25.66
2017-09-02T09:03:25.393Z,27.14
2017-09-02T09:04:25.847Z,27.75
2017-09-02T09:05:26.307Z,25.77
2017-09-02T09:06:26.780Z,26.06
2017-09-02T09:07:27.229Z,26.93
2017-09-02T09:08:27.694Z,26.71
2017-09-02T09:09:28.159Z,26.71
2017-09-02T09:10:28.617Z,27.98
2017-09-02T09:11:29.080Z,29.13
2017-09-02T09:12:29.555Z,23.69
2017-09-02T09:13:30.011Z,24.03
2017-09-02T09:14:30.486Z,25.36
2017-09-02T09:15:30.935Z,25.18
2017-09-02T09:16:31.398Z,26.96
2017-09-02T09:17:31.857Z,26.66
2017-09-02T09:18:32.322Z,26.96
2017-09-02T09:19:32.785Z,25.68
2017-09-02T09:20:33.250Z,24.58
2017-09-02T09:21:33.749Z,24.45
2017-09-02T09:22:34.174Z,23.65
2017-09-02T09:23:34.643Z,23.55
2017-09-02T09:24:35.100Z,23.59
2017-09-02T09:25:35.555Z,22.76
2017-09-02T09:26:36.015Z,22.60
2017-09-02T09:27:36.472Z,23.05
2017-09-02T09:28:36.930Z,24.32
2017-09-02T09:29:37.386Z,24.70
2017-09-02T09:30:37.842Z,25.36
2017-09-02T09:31:38.297Z,25.23
2017-09-02T09:32:38.765Z,27.00
2017-09-02T09:33:39.219Z,26.29
2017-09-02T09:34:39.676Z,25.40
2017-09-02T09:35:40.155Z,25.01
2017-09-02T09:36:40.602Z,22.99
2017-09-02T09:37:41.056Z,22.87
2017-09-02T09:38:41.511Z,22.84
2017-09-02T09:39:41.976Z,23.37
2017-09-02T09:40:42.436Z,23.21
2017-09-02T09:41:42.892Z,24.39
2017-09-02T09:42:43.377Z,26.41
2017-09-02T09:43:43.855Z,26.81
2017-09-02T09:44:44.285Z,27.25
2017-09-02T09:45:44.753Z,25.78
2017-09-02T09:46:45.207Z,26.19
2017-09-02T09:47:45.670Z,27.02
2017-09-02T09:48:46.141Z,26.13
2017-09-02T09:49:46.599Z,27.11
2017-09-02T09:50:47.061Z,24.43
2017-09-02T09:51:47.538Z,26.00
2017-09-02T09:52:48.002Z,25.28
2017-09-02T09:53:48.465Z,25.18
2017-09-02T09:54:48.919Z,23.93
2017-09-02T09:55:49.411Z,26.23
2017-09-02T09:56:49.857Z,25.36
2017-09-02T09:57:50.333Z,25.29
2017-09-02T09:58:50.792Z,26.96
2017-09-02T09:59:51.263Z,27.14
2017-09-02T10:00:51.723Z,28.74
2017-09-02T10:01:52.191Z,28.84
2017-09-02T10:02:52.659Z,29.42
2017-09-02T10:03:53.123Z,30.13
2017-09-02T10:04:53.593Z,29.60
2017-09-02T10:05:54.057Z,28.84
2017-09-02T10:06:54.524Z,27.85
2017-09-02T10:07:54.993Z,24.58
2017-09-02T10:08:55.466Z,25.22
2017-09-02T10:09:55.929Z,25.23
2017-09-02T10:10:56.401Z,26.40
2017-09-02T10:11:56.892Z,25.28
2017-09-02T10:12:57.332Z,25.69
2017-09-02T10:13:57.797Z,26.15
2017-09-02T10:14:58.266Z,26.02
2017-09-02T10:15:58.737Z,27.12
2017-09-02T10:16:59.239Z,27.07
2017-09-02T10:17:59.690Z,26.23
2017-09-02T10:19:00.149Z,27.18
2017-09-02T10:20:00.647Z,28.23
2017-09-02T10:21:01.081Z,28.22
2017-09-02T10:22:01.537Z,28.30
2017-09-02T10:23:02.005Z,28.05
2017-09-02T10:24:02.469Z,26.90
2017-09-02T10:25:02.932Z,26.68
2017-09-02T10:26:03.405Z,25.84
2017-09-02T10:27:03.861Z,24.88
2017-09-02T10:28:04.328Z,25.23
2017-09-02T10:29:04.790Z,24.91
2017-09-02T10:30:05.247Z,26.66
2017-09-02T10:31:05.722Z,27.45
2017-09-02T10:32:06.174Z,26.66
2017-09-02T10:33:06.629Z,27.18
2017-09-02T10:34:07.092Z,28.57
2017-09-02T10:35:07.562Z,28.35
2017-09-02T10:36:08.017Z,29.88
2017-09-02T10:37:08.479Z,29.68
2017-09-02T10:38:08.941Z,28.52
2017-09-02T10:39:09.411Z,27.96
2017-09-02T10:40:09.865Z,27.86
2017-09-02T10:41:10.332Z,27.52
2017-09-02T10:42:10.799Z,27.37
2017-09-02T10:43:11.254Z,25.95
2017-09-02T10:44:11.719Z,25.60
2017-09-02T10:45:12.172Z,24.53
2017-09-02T10:47:45.780Z,22.96
2017-09-02T10:50:20.374Z,24.38
2017-09-02T10:51:20.830Z,23.40
2017-09-02T10:53:16.417Z,24.88
2017-09-02T10:54:16.875Z,25.81
2017-09-02T10:56:11.500Z,24.85
2017-09-02T10:57:11.960Z,24.74
2017-09-02T10:58:12.427Z,25.65
2017-09-02T10:59:12.895Z,27.60
2017-09-02T11:00:13.358Z,27.52
2017-09-02T11:01:13.818Z,26.66
2017-09-02T11:02:14.276Z,24.66
2017-09-02T11:03:14.747Z,25.26
2017-09-02T11:04:15.205Z,26.31
2017-09-02T11:05:15.659Z,24.33
2017-09-02T11:06:16.119Z,23.78
2017-09-02T11:07:16.579Z,22.98
2017-09-02T11:08:17.044Z,21.96
2017-09-02T11:09:17.497Z,21.02
2017-09-02T11:10:17.954Z,20.58
2017-09-02T11:11:18.405Z,21.27
2017-09-02T11:12:18.884Z,21.22
2017-09-02T11:13:19.320Z,21.64
2017-09-02T11:14:19.773Z,21.64
2017-09-02T11:15:20.223Z,21.42
2017-09-02T11:16:20.674Z,21.06
2017-09-02T11:17:21.129Z,21.15
2017-09-02T11:18:21.588Z,21.45
2017-09-02T11:19:22.028Z,21.64
2017-09-02T11:20:22.478Z,22.06
2017-09-02T11:21:22.936Z,21.93
2017-09-02T11:22:23.396Z,21.95
2017-09-02T11:23:23.833Z,21.91
2017-09-02T11:24:24.276Z,21.70
2017-09-02T11:25:24.738Z,21.58
2017-09-02T11:26:25.173Z,21.83
2017-09-02T11:27:25.626Z,21.95
2017-09-02T11:28:26.062Z,21.37
2017-09-02T11:29:26.512Z,21.35
2017-09-02T11:30:26.962Z,21.85
2017-09-02T11:31:27.408Z,22.29
2017-09-02T11:32:27.859Z,21.39
2017-09-02T11:33:28.303Z,20.85
2017-09-02T11:34:28.754Z,21.09
2017-09-02T11:35:29.199Z,21.52
2017-09-02T11:36:29.646Z,21.60
2017-09-02T11:37:30.095Z,21.21
2017-09-02T11:38:30.541Z,21.76
2017-09-02T11:39:31.000Z,21.79
2017-09-02T11:40:52.604Z,21.88
2017-09-02T11:43:06.039Z,21.21
2017-09-02T11:44:06.458Z,21.11
2017-09-02T11:46:01.032Z,21.95
2017-09-02T11:47:01.486Z,21.40
2017-09-02T11:48:56.077Z,21.99
2017-09-02T11:49:56.519Z,21.80
2017-09-02T11:51:51.108Z,22.22
2017-09-02T11:52:51.559Z,21.58
2017-09-02T11:54:47.130Z,20.96
2017-09-02T11:55:47.585Z,21.02
2017-09-02T11:57:42.174Z,21.07
2017-09-02T11:58:42.638Z,21.33
2017-09-02T12:00:37.234Z,21.61
2017-09-02T12:01:37.662Z,21.72
2017-09-02T12:03:32.251Z,22.15
2017-09-02T12:04:32.701Z,22.48
2017-09-02T12:06:27.281Z,22.23
2017-09-02T12:07:27.728Z,21.70
2017-09-02T12:09:23.300Z,21.58
2017-09-02T12:10:23.742Z,21.61
2017-09-02T12:11:24.194Z,21.64
2017-09-02T12:12:24.640Z,22.08
2017-09-02T12:13:25.088Z,22.23
2017-09-02T12:14:25.529Z,22.48
2017-09-02T12:15:25.985Z,22.32
2017-09-02T12:16:26.431Z,22.22
2017-09-02T12:17:26.874Z,22.00
2017-09-02T12:18:27.315Z,22.20
2017-09-02T12:19:27.764Z,22.39
2017-09-02T12:20:28.209Z,22.44
2017-09-02T12:21:28.656Z,22.63
2017-09-02T12:22:29.104Z,22.47
2017-09-02T12:23:29.548Z,22.53
2017-09-02T12:24:29.995Z,22.07
2017-09-02T12:25:30.448Z,22.11
2017-09-02T12:26:30.888Z,22.50
2017-09-02T12:27:31.337Z,22.69
2017-09-02T12:28:31.782Z,22.29
2017-09-02T12:29:32.231Z,22.48
2017-09-02T12:30:32.676Z,22.28
2017-09-02T12:31:33.122Z,21.96
2017-09-02T12:32:33.567Z,21.92
2017-09-02T12:33:48.584Z,22.20
2017-09-02T12:35:10.585Z,22.13
2017-09-02T12:35:37.669Z,21.80
2017-09-02T12:36:35.351Z,21.57
2017-09-02T12:37:35.805Z,21.43
2017-09-02T12:38:36.248Z,21.69
2017-09-02T12:39:36.695Z,21.88
2017-09-02T12:40:37.145Z,22.17
2017-09-02T12:41:37.587Z,22.59
2017-09-02T12:42:38.036Z,21.92
2017-09-02T12:43:38.476Z,21.40
2017-09-02T12:44:38.925Z,21.00
2017-09-02T12:45:39.375Z,20.82
2017-09-02T12:46:39.856Z,20.58
2017-09-02T12:47:40.262Z,20.62
2017-09-02T12:48:40.715Z,21.00
2017-09-02T12:49:41.181Z,20.99
2017-09-02T12:50:41.602Z,20.69
2017-09-02T12:51:42.051Z,20.74
2017-09-02T12:52:42.506Z,21.07
2017-09-02T12:53:42.996Z,21.00
2017-09-02T12:54:43.376Z,20.85
2017-09-02T12:55:43.913Z,21.20
2017-09-02T12:56:44.274Z,21.21
2017-09-02T12:57:44.725Z,21.46
2017-09-02T12:58:46.197Z,21.98
2017-09-02T12:59:45.617Z,22.36
2017-09-02T13:00:46.065Z,22.17
2017-09-02T13:01:46.523Z,21.70
2017-09-02T13:02:47.060Z,21.30
2017-09-02T13:03:47.402Z,21.61
2017-09-02T13:04:47.840Z,21.39
2017-09-02T13:05:48.292Z,21.70
2017-09-02T13:06:48.735Z,21.85
2017-09-02T13:07:49.179Z,22.14
2017-09-02T13:08:49.627Z,22.08
2017-09-02T13:09:50.072Z,22.47
2017-09-02T13:10:50.512Z,22.39
2017-09-02T13:11:51.080Z,22.48
2017-09-02T13:12:51.401Z,21.42
2017-09-02T13:13:51.850Z,21.45
2017-09-02T13:14:52.298Z,21.85
2017-09-02T13:15:52.758Z,21.93
2017-09-02T13:16:53.188Z,22.36